createdAt,value
2019-06-08T00:02:47.733Z,15.98
2019-06-08T00:05:54.276Z,16.97
2019-06-08T00:09:00.798Z,17.55
2019-06-08T00:12:08.852Z,17.23
2019-06-08T00:15:16.174Z,16.20
2019-06-08T00:18:23.610Z,19.30
2019-06-08T00:21:30.198Z,16.12
2019-06-08T00:24:36.635Z,16.40
2019-06-08T00:27:43.330Z,20.97
2019-06-08T00:30:49.899Z,17.48
2019-06-08T00:33:56.402Z,17.60
2019-06-08T00:37:02.860Z,17.80
2019-06-08T00:40:09.433Z,20.37
2019-06-08T00:43:17.064Z,26.00
2019-06-08T00:46:24.043Z,17.82
2019-06-08T00:49:30.504Z,23.40
2019-06-08T00:52:37.050Z,22.65
2019-06-08T00:55:43.588Z,23.47
2019-06-08T00:58:50.306Z,22.48
2019-06-08T01:01:57.185Z,17.48
2019-06-08T01:05:03.800Z,17.25
2019-06-08T01:08:10.329Z,16.12
2019-06-08T01:11:16.901Z,15.88
2019-06-08T01:14:24.915Z,17.00
2019-06-08T01:17:31.389Z,18.53
2019-06-08T01:20:37.904Z,17.45
2019-06-08T01:23:44.439Z,17.05
2019-06-08T01:26:51.255Z,16.93
2019-06-08T01:29:57.760Z,19.25
2019-06-08T01:33:04.511Z,18.43
2019-06-08T01:36:11.546Z,16.67
2019-06-08T01:39:17.990Z,15.83
2019-06-08T01:42:25.552Z,20.20
2019-06-08T01:45:33.083Z,21.30
2019-06-08T01:48:40.288Z,22.52
2019-06-08T01:51:46.950Z,17.48
2019-06-08T01:54:53.656Z,22.25
2019-06-08T01:58:00.258Z,22.50
2019-06-08T02:01:07.035Z,20.62
2019-06-08T02:04:13.783Z,20.08
2019-06-08T02:07:20.310Z,23.15
2019-06-08T02:10:26.806Z,18.27
2019-06-08T02:13:33.375Z,19.10
2019-06-08T02:16:39.843Z,18.23
2019-06-08T02:19:46.369Z,16.23
2019-06-08T02:22:52.851Z,16.00
2019-06-08T02:26:00.413Z,18.50
2019-06-08T02:29:06.882Z,19.48
2019-06-08T02:32:14.434Z,15.95
2019-06-08T02:35:21.258Z,15.60
2019-06-08T02:38:29.769Z,14.98
2019-06-08T02:41:37.555Z,16.27
2019-06-08T02:44:44.214Z,16.35
2019-06-08T02:47:50.767Z,15.43
2019-06-08T02:50:57.721Z,14.38
2019-06-08T02:54:04.472Z,14.98
2019-06-08T02:57:11.369Z,16.67
2019-06-08T03:00:18.377Z,15.28
2019-06-08T03:03:26.550Z,16.05
2019-06-08T03:06:36.792Z,13.58
2019-06-08T03:09:43.943Z,12.88
2019-06-08T03:12:51.991Z,14.63
2019-06-08T03:15:58.493Z,11.55
2019-06-08T03:19:20.753Z,14.07
2019-06-08T03:22:13.087Z,13.47
2019-06-08T03:25:19.589Z,12.33
2019-06-08T03:28:26.123Z,11.20
2019-06-08T03:31:54.257Z,13.40
2019-06-08T03:34:56.286Z,9.90
2019-06-08T03:38:01.229Z,10.20
2019-06-08T03:41:08.079Z,9.80
2019-06-08T03:44:14.533Z,10.15
2019-06-08T03:47:21.079Z,9.98
2019-06-08T03:50:27.546Z,10.10
2019-06-08T03:53:35.702Z,8.03
2019-06-08T03:56:44.112Z,8.83
2019-06-08T03:59:50.821Z,8.35
2019-06-08T04:02:57.303Z,8.48
2019-06-08T04:06:03.822Z,16.35
2019-06-08T04:09:10.539Z,8.08
2019-06-08T04:12:17.090Z,8.53
2019-06-08T04:15:24.459Z,8.33
2019-06-08T04:18:30.929Z,7.97
2019-06-08T04:21:40.122Z,7.98
2019-06-08T04:24:46.783Z,7.60
2019-06-08T04:27:53.171Z,8.15
2019-06-08T04:30:59.635Z,7.78
2019-06-08T04:34:05.981Z,6.95
2019-06-08T04:37:15.827Z,7.22
2019-06-08T04:40:20.733Z,6.78
2019-06-08T04:43:27.178Z,7.40
2019-06-08T04:46:33.610Z,7.40
2019-06-08T04:49:40.240Z,7.00
2019-06-08T04:52:47.495Z,7.17
2019-06-08T04:55:55.506Z,6.22
2019-06-08T04:59:02.050Z,6.50
2019-06-08T05:02:08.583Z,6.75
2019-06-08T05:05:15.280Z,6.92
2019-06-08T05:08:21.780Z,6.53
2019-06-08T05:11:28.529Z,6.05
2019-06-08T05:14:35.085Z,6.72
2019-06-08T05:17:43.158Z,6.28
2019-06-08T05:20:51.455Z,6.30
2019-06-08T05:23:59.076Z,5.67
2019-06-08T05:27:08.474Z,5.33
2019-06-08T05:30:15.406Z,4.80
2019-06-08T05:33:21.877Z,5.67
2019-06-08T05:36:28.324Z,5.42
2019-06-08T05:39:34.800Z,4.85
2019-06-08T05:42:42.787Z,4.90
2019-06-08T05:45:49.982Z,4.65
2019-06-08T05:48:57.471Z,4.87
2019-06-08T05:52:03.963Z,5.17
2019-06-08T05:55:10.950Z,5.67
2019-06-08T05:58:17.703Z,4.45
2019-06-08T06:01:24.236Z,5.08
2019-06-08T06:04:30.666Z,4.25
2019-06-08T06:07:40.426Z,4.60
2019-06-08T06:10:47.276Z,4.58
2019-06-08T06:13:53.849Z,4.70
2019-06-08T06:17:00.537Z,4.65
2019-06-08T06:20:07.230Z,4.20
2019-06-08T06:23:13.821Z,4.65
2019-06-08T06:26:20.247Z,4.17
2019-06-08T06:29:27.054Z,4.62
2019-06-08T06:32:33.587Z,4.25
2019-06-08T06:35:40.019Z,4.17
2019-06-08T06:38:47.906Z,4.20
2019-06-08T06:41:54.691Z,3.80
2019-06-08T06:45:01.143Z,4.95
2019-06-08T06:48:07.711Z,4.28
2019-06-08T06:51:25.862Z,4.00
2019-06-08T06:54:22.512Z,3.65
2019-06-08T06:57:29.936Z,4.35
2019-06-08T07:00:37.629Z,4.50
2019-06-08T07:03:44.273Z,4.20
2019-06-08T07:06:52.166Z,4.00
2019-06-08T07:09:58.717Z,5.47
2019-06-08T07:13:05.197Z,4.37
2019-06-08T07:16:18.597Z,4.00
2019-06-08T07:19:20.457Z,3.90
2019-06-08T07:22:27.080Z,4.10
2019-06-08T07:25:33.898Z,3.45
2019-06-08T07:28:40.356Z,3.60
2019-06-08T07:31:48.313Z,3.58
2019-06-08T07:34:55.433Z,3.02
2019-06-08T07:38:02.300Z,3.03
2019-06-08T07:41:08.747Z,3.05
2019-06-08T07:44:15.336Z,3.35
2019-06-08T07:47:21.854Z,3.12
2019-06-08T07:50:28.357Z,2.83
2019-06-08T07:53:34.872Z,3.30
2019-06-08T07:56:41.680Z,3.20
2019-06-08T07:59:49.195Z,2.83
2019-06-08T08:02:56.788Z,2.72
2019-06-08T08:06:03.270Z,2.55
2019-06-08T08:09:09.716Z,2.30
2019-06-08T08:12:16.242Z,2.60
2019-06-08T08:15:22.694Z,2.70
2019-06-08T08:18:29.351Z,2.60
2019-06-08T08:21:37.977Z,2.50
2019-06-08T08:24:44.248Z,2.50
2019-06-08T08:27:51.901Z,3.75
2019-06-08T08:31:01.666Z,3.20
2019-06-08T08:34:08.951Z,2.22
2019-06-08T08:37:17.412Z,3.75
2019-06-08T08:40:23.428Z,2.40
2019-06-08T08:43:29.888Z,2.52
2019-06-08T08:46:38.748Z,2.85
2019-06-08T08:49:44.598Z,2.70
2019-06-08T08:52:52.285Z,2.40
2019-06-08T08:56:01.226Z,4.33
2019-06-08T08:59:07.783Z,2.30
2019-06-08T09:02:20.504Z,3.08
2019-06-08T09:05:23.501Z,2.60
2019-06-08T09:08:30.128Z,2.42
2019-06-08T09:11:38.344Z,2.47
2019-06-08T09:14:47.744Z,4.00
2019-06-08T09:17:53.844Z,2.30
2019-06-08T09:21:02.855Z,2.40
2019-06-08T09:24:08.859Z,2.58
2019-06-08T09:27:17.751Z,2.02
2019-06-08T09:30:23.420Z,2.55
2019-06-08T09:33:29.886Z,2.20
2019-06-08T09:36:37.558Z,2.42
2019-06-08T09:39:44.746Z,3.27
2019-06-08T09:42:55.432Z,2.30
2019-06-08T09:46:02.044Z,2.33
2019-06-08T09:49:11.676Z,2.27
2019-06-08T09:52:18.382Z,2.62
2019-06-08T09:55:28.691Z,2.22
2019-06-08T09:58:34.111Z,2.47
2019-06-08T10:01:40.600Z,2.30
2019-06-08T10:04:48.351Z,3.00
2019-06-08T10:07:56.856Z,2.42
2019-06-08T10:11:05.644Z,2.42
2019-06-08T10:14:12.721Z,2.30
2019-06-08T10:17:20.992Z,2.65
2019-06-08T10:20:28.864Z,5.30
2019-06-08T10:23:41.196Z,2.37
2019-06-08T10:26:44.417Z,2.22
2019-06-08T10:29:51.024Z,2.00
2019-06-08T10:33:00.441Z,2.47
2019-06-08T10:36:09.497Z,2.75
2019-06-08T10:39:14.002Z,2.45
2019-06-08T10:42:20.528Z,2.47
2019-06-08T10:45:28.616Z,3.83
2019-06-08T10:48:37.519Z,2.22
2019-06-08T10:51:43.325Z,2.27
2019-06-08T10:54:50.821Z,2.58
2019-06-08T10:57:58.500Z,2.65
2019-06-08T11:01:10.790Z,2.77
2019-06-08T11:04:14.229Z,3.72
2019-06-08T11:07:20.767Z,2.30
2019-06-08T11:10:27.484Z,2.92
2019-06-08T11:13:33.888Z,2.50
2019-06-08T11:16:40.415Z,2.40
2019-06-08T11:19:48.034Z,2.77
2019-06-08T11:22:57.843Z,2.25
2019-06-08T11:26:07.683Z,2.45
2019-06-08T11:29:13.815Z,2.22
2019-06-08T11:32:20.050Z,2.65
2019-06-08T11:35:28.580Z,2.17
2019-06-08T11:38:34.732Z,2.60
2019-06-08T11:41:41.189Z,2.00
2019-06-08T11:44:51.212Z,2.50
2019-06-08T11:48:00.683Z,2.10
2019-06-08T11:51:09.594Z,2.58
2019-06-08T11:54:29.530Z,3.52
2019-06-08T11:57:23.696Z,2.30
2019-06-08T12:00:52.510Z,4.95
2019-06-08T12:03:58.863Z,2.98
2019-06-08T12:07:07.052Z,2.40
2019-06-08T12:10:14.171Z,2.05
2019-06-08T12:13:21.839Z,1.87
2019-06-08T12:16:28.458Z,2.05
2019-06-08T12:19:37.694Z,2.97
2019-06-08T12:22:44.420Z,1.98
2019-06-08T12:25:51.083Z,2.15
2019-06-08T12:28:58.430Z,2.12
2019-06-08T12:32:08.824Z,4.90
2019-06-08T12:35:14.073Z,2.00
2019-06-08T12:38:20.477Z,2.00
2019-06-08T12:41:28.879Z,3.05
2019-06-08T12:44:38.313Z,2.08
2019-06-08T12:47:44.522Z,2.02
2019-06-08T12:50:51.970Z,2.12
2019-06-08T12:54:00.251Z,2.37
2019-06-08T12:57:12.184Z,2.10
2019-06-08T13:00:19.661Z,2.40
2019-06-08T13:03:24.923Z,2.17
2019-06-08T13:06:31.354Z,2.35
2019-06-08T13:09:38.258Z,4.87
2019-06-08T13:12:44.987Z,2.47
2019-06-08T13:15:51.460Z,2.30
2019-06-08T13:18:58.676Z,2.33
2019-06-08T13:22:05.348Z,3.05
2019-06-08T13:25:25.886Z,9.53
2019-06-08T13:28:24.985Z,2.02
2019-06-08T13:31:28.965Z,2.22
2019-06-08T13:34:35.562Z,1.92
2019-06-08T13:37:42.127Z,1.80
2019-06-08T13:40:48.603Z,2.10
2019-06-08T13:43:55.027Z,1.70
2019-06-08T13:47:01.455Z,1.60
2019-06-08T13:50:08.255Z,2.47
2019-06-08T13:53:19.247Z,1.85
2019-06-08T13:56:24.680Z,2.95
2019-06-08T13:59:31.178Z,2.30
2019-06-08T14:02:39.695Z,4.70
2019-06-08T14:05:47.355Z,2.92
2019-06-08T14:08:54.004Z,2.60
2019-06-08T14:12:00.559Z,2.58
2019-06-08T14:15:08.654Z,2.75
2019-06-08T14:18:20.890Z,2.60
2019-06-08T14:21:35.646Z,2.77
2019-06-08T14:24:34.416Z,2.85
2019-06-08T14:27:39.859Z,3.30
2019-06-08T14:30:47.951Z,2.58
2019-06-08T14:33:55.097Z,2.80
2019-06-08T14:37:01.597Z,2.98
2019-06-08T14:40:08.411Z,2.95
2019-06-08T14:43:14.896Z,3.70
2019-06-08T14:46:23.134Z,3.60
2019-06-08T14:49:34.728Z,3.45
2019-06-08T14:52:38.282Z,3.80
2019-06-08T14:55:44.798Z,3.02
2019-06-08T14:58:51.215Z,3.05
2019-06-08T15:01:57.852Z,3.90
2019-06-08T15:05:04.933Z,3.25
2019-06-08T15:08:11.490Z,2.90
2019-06-08T15:11:18.028Z,3.42
2019-06-08T15:14:25.771Z,3.22
2019-06-08T15:17:32.368Z,2.80
2019-06-08T15:20:38.984Z,3.77
2019-06-08T15:23:47.214Z,3.10
2019-06-08T15:26:53.613Z,4.03
2019-06-08T15:30:00.194Z,3.50
2019-06-08T15:33:06.630Z,3.55
2019-06-08T15:36:13.339Z,3.30
2019-06-08T15:39:19.776Z,3.17
2019-06-08T15:42:28.714Z,3.22
2019-06-08T15:45:34.423Z,2.65
2019-06-08T15:48:40.859Z,3.70
2019-06-08T15:51:48.145Z,3.02
2019-06-08T15:54:58.090Z,2.77
2019-06-08T15:58:02.856Z,2.92
2019-06-08T16:01:09.279Z,2.90
2019-06-08T16:04:15.748Z,2.70
2019-06-08T16:07:22.272Z,3.08
2019-06-08T16:10:30.292Z,2.77
2019-06-08T16:13:36.648Z,2.33
2019-06-08T16:16:43.119Z,2.80
2019-06-08T16:19:53.013Z,3.50
2019-06-08T16:22:58.207Z,2.12
2019-06-08T16:26:04.611Z,4.12
2019-06-08T16:29:10.960Z,1.87
2019-06-08T16:32:17.429Z,4.60
2019-06-08T16:35:23.902Z,1.37
2019-06-08T16:38:30.445Z,2.60
2019-06-08T16:41:36.954Z,2.08
2019-06-08T16:44:43.395Z,3.02
2019-06-08T16:47:49.890Z,1.92
2019-06-08T16:50:56.317Z,1.62
2019-06-08T16:54:03.386Z,1.70
2019-06-08T16:57:11.208Z,2.90
2019-06-08T17:00:30.656Z,1.57
2019-06-08T17:03:26.372Z,2.20
2019-06-08T17:06:33.593Z,2.80
2019-06-08T17:09:41.158Z,2.30
2019-06-08T17:12:47.911Z,3.85
2019-06-08T17:15:54.374Z,3.60
2019-06-08T17:19:00.924Z,2.00
2019-06-08T17:22:07.815Z,1.62
2019-06-08T17:25:16.130Z,2.80
2019-06-08T17:28:22.553Z,1.80
2019-06-08T17:31:29.128Z,2.20
2019-06-08T17:34:36.647Z,3.58
2019-06-08T17:37:43.466Z,2.33
2019-06-08T17:40:50.109Z,2.65
2019-06-08T17:43:56.511Z,3.12
2019-06-08T17:47:02.921Z,3.10
2019-06-08T17:50:09.643Z,3.30
2019-06-08T17:53:16.087Z,3.25
2019-06-08T17:56:22.612Z,4.03
2019-06-08T17:59:29.155Z,4.35
2019-06-08T18:02:38.329Z,3.98
2019-06-08T18:05:45.611Z,4.30
2019-06-08T18:08:52.570Z,4.08
2019-06-08T18:11:59.704Z,4.00
2019-06-08T18:15:07.865Z,3.80
2019-06-08T18:18:14.528Z,4.10
2019-06-08T18:21:21.407Z,4.58
2019-06-08T18:24:28.112Z,7.53
2019-06-08T18:27:39.212Z,4.17
2019-06-08T18:30:45.154Z,4.17
2019-06-08T18:33:53.200Z,11.10
2019-06-08T18:36:59.686Z,4.00
2019-06-08T18:40:07.456Z,3.37
2019-06-08T18:43:14.161Z,3.60
2019-06-08T18:46:21.696Z,3.65
2019-06-08T18:49:29.148Z,3.85
2019-06-08T18:52:39.876Z,3.40
2019-06-08T18:55:45.667Z,3.00
2019-06-08T18:58:53.717Z,3.80
2019-06-08T19:02:00.369Z,3.33
2019-06-08T19:05:08.425Z,3.65
2019-06-08T19:08:15.036Z,3.00
2019-06-08T19:11:21.603Z,6.08
2019-06-08T19:14:29.096Z,3.10
2019-06-08T19:17:39.786Z,3.02
2019-06-08T19:20:47.075Z,3.00
2019-06-08T19:23:52.462Z,3.25
2019-06-08T19:26:59.994Z,3.20
2019-06-08T19:30:07.804Z,3.30
2019-06-08T19:33:14.279Z,3.17
2019-06-08T19:36:21.324Z,2.80
2019-06-08T19:39:28.282Z,4.20
2019-06-08T19:42:40.584Z,5.10
2019-06-08T19:45:44.256Z,3.25
2019-06-08T19:48:54.872Z,3.55
2019-06-08T19:52:00.150Z,3.75
2019-06-08T19:55:07.905Z,4.15
2019-06-08T19:58:14.639Z,3.20
2019-06-08T20:01:21.250Z,2.87
2019-06-08T20:04:27.890Z,3.25
2019-06-08T20:07:37.618Z,3.60
2019-06-08T20:10:43.566Z,3.45
2019-06-08T20:13:51.529Z,3.98
2019-06-08T20:16:58.246Z,3.40
2019-06-08T20:20:10.294Z,3.65
2019-06-08T20:23:15.286Z,4.42
2019-06-08T20:26:21.756Z,3.85
2019-06-08T20:29:28.644Z,3.77
2019-06-08T20:32:37.745Z,2.77
2019-06-08T20:35:43.622Z,3.27
2019-06-08T20:38:50.898Z,2.90
2019-06-08T20:41:58.521Z,3.22
2019-06-08T20:45:07.947Z,3.47
2019-06-08T20:48:14.295Z,3.50
2019-06-08T20:51:20.995Z,3.67
2019-06-08T20:54:27.942Z,3.35
2019-06-08T20:57:34.493Z,3.60
2019-06-08T21:00:40.967Z,3.83
2019-06-08T21:03:48.612Z,3.40
2019-06-08T21:06:57.355Z,3.90
2019-06-08T21:10:04.294Z,3.87
2019-06-08T21:13:10.736Z,5.22
2019-06-08T21:16:18.187Z,3.87
2019-06-08T21:19:24.828Z,3.87
2019-06-08T21:22:32.384Z,5.20
2019-06-08T21:25:38.889Z,3.15
2019-06-08T21:28:47.194Z,3.40
2019-06-08T21:31:55.262Z,3.40
2019-06-08T21:35:01.770Z,3.85
2019-06-08T21:38:22.631Z,3.45
2019-06-08T21:41:17.240Z,3.27
2019-06-08T21:44:23.794Z,3.47
2019-06-08T21:47:30.307Z,3.15
2019-06-08T21:50:38.152Z,3.02
2019-06-08T21:53:46.997Z,3.50
2019-06-08T21:56:53.238Z,3.00
2019-06-08T22:00:21.999Z,3.58
2019-06-08T22:03:10.827Z,2.90
2019-06-08T22:06:17.765Z,2.90
2019-06-08T22:09:24.359Z,2.70
2019-06-08T22:12:30.901Z,2.67
2019-06-08T22:15:37.894Z,6.12
2019-06-08T22:18:47.470Z,2.52
2019-06-08T22:21:54.260Z,2.80
2019-06-08T22:25:01.765Z,2.60
2019-06-08T22:28:08.213Z,2.70
2019-06-08T22:31:16.972Z,2.70
2019-06-08T22:34:22.915Z,2.85
2019-06-08T22:37:31.143Z,2.72
2019-06-08T22:40:37.518Z,2.92
2019-06-08T22:43:44.040Z,3.10
2019-06-08T22:46:50.622Z,2.70
2019-06-08T22:50:00.258Z,2.47
2019-06-08T22:53:08.046Z,2.67
2019-06-08T22:56:14.639Z,2.50
2019-06-08T22:59:21.191Z,2.95
2019-06-08T23:02:27.873Z,2.40
2019-06-08T23:05:34.286Z,5.12
2019-06-08T23:08:40.825Z,2.55
2019-06-08T23:11:47.427Z,3.15
2019-06-08T23:14:54.365Z,2.62
2019-06-08T23:18:02.569Z,2.70
2019-06-08T23:21:09.128Z,2.75
2019-06-08T23:24:18.071Z,2.62
2019-06-08T23:27:27.051Z,2.33
2019-06-08T23:30:33.191Z,2.87
2019-06-08T23:33:39.730Z,2.72
2019-06-08T23:36:57.607Z,2.62
2019-06-08T23:39:54.598Z,2.40
2019-06-08T23:43:01.625Z,2.77
2019-06-08T23:46:09.748Z,3.17
2019-06-08T23:49:18.670Z,2.35
2019-06-08T23:52:24.512Z,2.83
2019-06-08T23:55:31.343Z,2.40
2019-06-08T23:58:39.114Z,2.37
